createdAt,value
2017-04-19T00:00:40.567Z,0
2017-04-19T00:01:40.554Z,0
2017-04-19T00:02:40.547Z,0
2017-04-19T00:03:40.223Z,0
2017-04-19T00:04:40.514Z,0
2017-04-19T00:05:40.505Z,0
2017-04-19T00:06:40.491Z,0
2017-04-19T00:07:40.477Z,0
2017-04-19T00:08:40.466Z,0
2017-04-19T00:09:40.456Z,0
2017-04-19T00:10:40.443Z,0
2017-04-19T00:11:40.430Z,0
2017-04-19T00:12:40.416Z,0
2017-04-19T00:13:40.410Z,0
2017-04-19T00:14:40.389Z,0
2017-04-19T00:15:40.375Z,0
2017-04-19T00:16:40.368Z,0
2017-04-19T00:17:40.349Z,0
2017-04-19T00:18:40.341Z,0
2017-04-19T00:19:40.323Z,0
2017-04-19T00:20:40.312Z,0
2017-04-19T00:21:40.300Z,0
2017-04-19T00:22:40.285Z,0
2017-04-19T00:23:40.274Z,0
2017-04-19T00:24:40.261Z,0
2017-04-19T00:25:40.246Z,0
2017-04-19T00:26:40.233Z,0
2017-04-19T00:27:40.224Z,0
2017-04-19T00:28:40.209Z,0
2017-04-19T00:29:40.195Z,0
2017-04-19T00:30:40.182Z,0
2017-04-19T00:31:40.165Z,0
2017-04-19T00:32:40.159Z,0
2017-04-19T00:33:39.841Z,0
2017-04-19T00:34:40.133Z,0
2017-04-19T00:35:40.118Z,0
2017-04-19T00:36:40.106Z,0
2017-04-19T00:37:40.094Z,0
2017-04-19T00:38:40.080Z,0
2017-04-19T00:39:40.064Z,0
2017-04-19T00:40:40.053Z,0
2017-04-19T00:41:40.036Z,0
2017-04-19T00:42:40.027Z,0
2017-04-19T00:43:40.015Z,0
2017-04-19T00:44:39.694Z,0
2017-04-19T00:45:39.987Z,0
2017-04-19T00:46:39.978Z,0
2017-04-19T00:47:39.961Z,0
2017-04-19T00:48:39.948Z,0
2017-04-19T00:49:39.988Z,0
2017-04-19T00:50:39.926Z,0
2017-04-19T00:51:39.910Z,0
2017-04-19T00:52:39.895Z,0
2017-04-19T00:53:39.882Z,0
2017-04-19T00:54:39.869Z,0
2017-04-19T00:55:39.858Z,0
2017-04-19T00:56:39.843Z,0
2017-04-19T00:57:39.831Z,0
2017-04-19T00:58:39.513Z,0
2017-04-19T00:59:39.806Z,0
2017-04-19T01:00:39.789Z,0
2017-04-19T01:01:39.814Z,0
2017-04-19T01:02:39.765Z,0
2017-04-19T01:03:39.449Z,0
2017-04-19T01:04:39.738Z,0
2017-04-19T01:05:39.722Z,0
2017-04-19T01:06:39.406Z,0
2017-04-19T01:07:39.697Z,0
2017-04-19T01:08:39.684Z,0
2017-04-19T01:09:39.671Z,0
2017-04-19T01:10:39.692Z,0
2017-04-19T01:11:39.338Z,0
2017-04-19T01:12:39.326Z,0
2017-04-19T01:13:39.619Z,0
2017-04-19T01:14:39.603Z,0
2017-04-19T01:15:39.283Z,0
2017-04-19T01:16:39.575Z,0
2017-04-19T01:17:39.564Z,0
2017-04-19T01:18:39.550Z,0
2017-04-19T01:19:39.534Z,0
2017-04-19T01:20:39.216Z,0
2017-04-19T01:21:39.506Z,0
2017-04-19T01:22:39.491Z,0
2017-04-19T01:23:39.177Z,0
2017-04-19T01:24:39.474Z,0
2017-04-19T01:25:39.452Z,0
2017-04-19T01:26:39.435Z,0
2017-04-19T01:27:39.129Z,0
2017-04-19T01:28:39.409Z,0
2017-04-19T01:29:39.394Z,0
2017-04-19T01:30:39.459Z,0
2017-04-19T01:31:39.365Z,0
2017-04-19T01:32:39.354Z,0
2017-04-19T01:33:39.340Z,0
2017-04-19T01:34:39.322Z,0
2017-04-19T01:35:39.311Z,0
2017-04-19T01:36:39.296Z,0
2017-04-19T01:37:38.979Z,0
2017-04-19T01:38:39.275Z,0
2017-04-19T01:39:39.297Z,0
2017-04-19T01:40:39.240Z,0
2017-04-19T01:41:39.227Z,0
2017-04-19T01:42:39.218Z,0
2017-04-19T01:43:39.201Z,0
2017-04-19T01:44:39.186Z,0
2017-04-19T01:45:39.171Z,0
2017-04-19T01:46:39.156Z,0
2017-04-19T01:47:38.534Z,0
2017-04-19T01:48:38.827Z,0
2017-04-19T01:49:39.135Z,0
2017-04-19T01:50:39.099Z,0
2017-04-19T01:51:38.780Z,0
2017-04-19T01:52:38.768Z,0
2017-04-19T01:53:38.752Z,0
2017-04-19T01:54:39.043Z,0
2017-04-19T01:55:39.027Z,0
2017-04-19T01:56:39.012Z,0
2017-04-19T01:57:38.700Z,0
2017-04-19T01:58:38.687Z,0
2017-04-19T01:59:38.665Z,0
2017-04-19T02:00:38.960Z,0
2017-04-19T02:01:38.942Z,0
2017-04-19T02:02:38.936Z,0
2017-04-19T02:03:38.611Z,0
2017-04-19T02:04:38.897Z,0
2017-04-19T02:05:38.580Z,0
2017-04-19T02:06:38.261Z,0
2017-04-19T02:07:38.637Z,0
2017-04-19T02:08:38.847Z,0
2017-04-19T02:09:38.834Z,0
2017-04-19T02:10:38.208Z,0
2017-04-19T02:11:38.797Z,0
2017-04-19T02:12:38.789Z,0
2017-04-19T02:13:38.773Z,0
2017-04-19T02:14:38.753Z,0
2017-04-19T02:15:38.742Z,0
2017-04-19T02:16:38.726Z,0
2017-04-19T02:17:38.716Z,0
2017-04-19T02:18:38.698Z,0
2017-04-19T02:19:38.076Z,0
2017-04-19T02:20:38.667Z,0
2017-04-19T02:21:38.652Z,0
2017-04-19T02:22:38.335Z,0
2017-04-19T02:23:38.629Z,0
2017-04-19T02:24:38.307Z,0
2017-04-19T02:25:38.594Z,0
2017-04-19T02:26:38.584Z,0
2017-04-19T02:27:38.261Z,0
2017-04-19T02:28:39.770Z,0
2017-04-19T02:29:38.234Z,0
2017-04-19T02:30:38.218Z,0
2017-04-19T02:31:38.203Z,0
2017-04-19T02:32:38.490Z,0
2017-04-19T02:33:38.175Z,0
2017-04-19T02:34:38.161Z,0
2017-04-19T02:35:38.453Z,0
2017-04-19T02:36:37.825Z,0
2017-04-19T02:37:38.112Z,0
2017-04-19T02:38:38.405Z,0
2017-04-19T02:39:38.388Z,0
2017-04-19T02:40:38.373Z,0
2017-04-19T02:41:38.368Z,0
2017-04-19T02:42:38.349Z,0
2017-04-19T02:43:38.332Z,0
2017-04-19T02:44:38.567Z,0
2017-04-19T02:45:38.302Z,0
2017-04-19T02:46:38.284Z,0
2017-04-19T02:47:38.266Z,0
2017-04-19T02:48:37.957Z,0
2017-04-19T02:49:38.238Z,0
2017-04-19T02:50:38.222Z,0
2017-04-19T02:51:38.213Z,0
2017-04-19T02:52:38.199Z,0
2017-04-19T02:53:38.201Z,0
2017-04-19T02:54:38.165Z,0
2017-04-19T02:55:38.160Z,0
2017-04-19T02:56:38.140Z,0
2017-04-19T02:57:37.820Z,0
2017-04-19T02:58:38.107Z,0
2017-04-19T02:59:38.091Z,0
2017-04-19T03:00:38.075Z,0
2017-04-19T03:01:38.058Z,0
2017-04-19T03:02:38.045Z,0
2017-04-19T03:03:38.031Z,0
2017-04-19T03:04:38.019Z,0
2017-04-19T03:05:37.702Z,0
2017-04-19T03:06:37.692Z,0
2017-04-19T03:07:37.668Z,0
2017-04-19T03:08:37.966Z,0
2017-04-19T03:09:37.940Z,0
2017-04-19T03:10:37.924Z,0
2017-04-19T03:11:38.181Z,0
2017-04-19T03:12:37.593Z,0
2017-04-19T03:13:37.584Z,0
2017-04-19T03:14:37.867Z,0
2017-04-19T03:15:37.853Z,0
2017-04-19T03:16:37.841Z,0
2017-04-19T03:17:37.820Z,0
2017-04-19T03:18:37.809Z,0
2017-04-19T03:19:37.790Z,4
2017-04-19T03:20:37.777Z,4
2017-04-19T03:21:37.760Z,0
2017-04-19T03:22:37.745Z,4
2017-04-19T03:24:38.929Z,4
2017-04-19T03:25:37.699Z,4
2017-04-19T03:26:37.687Z,4
2017-04-19T03:27:37.667Z,4
2017-04-19T03:28:37.654Z,8
2017-04-19T03:29:38.243Z,4
2017-04-19T03:30:37.319Z,8
2017-04-19T03:31:37.312Z,12
2017-04-19T03:32:37.593Z,12
2017-04-19T03:33:37.579Z,16
2017-04-19T03:34:37.565Z,16
2017-04-19T03:35:37.545Z,20
2017-04-19T03:36:37.531Z,20
2017-04-19T03:37:37.516Z,24
2017-04-19T03:38:37.702Z,28
2017-04-19T03:39:36.881Z,32
2017-04-19T03:40:37.166Z,40
2017-04-19T03:41:37.453Z,44
2017-04-19T03:42:37.437Z,52
2017-04-19T03:43:37.428Z,60
2017-04-19T03:44:37.408Z,72
2017-04-19T03:45:37.392Z,80
2017-04-19T03:46:37.376Z,92
2017-04-19T03:47:37.368Z,104
2017-04-19T03:48:37.359Z,116
2017-04-19T03:49:37.365Z,132
2017-04-19T03:50:37.320Z,148
2017-04-19T03:51:37.306Z,168
2017-04-19T03:52:37.293Z,184
2017-04-19T03:53:37.275Z,208
2017-04-19T03:54:37.258Z,232
2017-04-19T03:55:37.242Z,256
2017-04-19T03:56:37.226Z,284
2017-04-19T03:57:36.910Z,312
2017-04-19T03:58:37.200Z,344
2017-04-19T03:59:37.187Z,376
2017-04-19T04:00:37.164Z,412
2017-04-19T04:01:37.150Z,444
2017-04-19T04:02:37.137Z,484
2017-04-19T04:03:37.120Z,524
2017-04-19T04:04:37.106Z,572
2017-04-19T04:05:37.090Z,616
2017-04-19T04:06:37.081Z,664
2017-04-19T04:07:37.059Z,712
2017-04-19T04:08:37.039Z,764
2017-04-19T04:09:37.027Z,820
2017-04-19T04:10:37.264Z,876
2017-04-19T04:11:36.997Z,936
2017-04-19T04:12:36.992Z,996
2017-04-19T04:13:36.967Z,1056
2017-04-19T04:14:36.953Z,1120
2017-04-19T04:15:36.935Z,1212
2017-04-19T04:16:36.920Z,1348
2017-04-19T04:17:36.905Z,1460
2017-04-19T04:18:36.890Z,1568
2017-04-19T04:19:36.873Z,1668
2017-04-19T04:20:36.858Z,1772
2017-04-19T04:21:36.842Z,1880
2017-04-19T04:22:36.828Z,1996
2017-04-19T04:23:36.630Z,2132
2017-04-19T04:24:36.797Z,2292
2017-04-19T04:25:36.784Z,2472
2017-04-19T04:26:36.777Z,2628
2017-04-19T04:27:36.449Z,2768
2017-04-19T04:28:36.738Z,2888
2017-04-19T04:29:36.724Z,3000
2017-04-19T04:30:36.710Z,3124
2017-04-19T04:31:36.697Z,3308
2017-04-19T04:32:36.686Z,3464
2017-04-19T04:33:36.673Z,3608
2017-04-19T04:34:36.657Z,3772
2017-04-19T04:35:36.644Z,4016
2017-04-19T04:36:36.326Z,4172
2017-04-19T04:37:36.616Z,4264
2017-04-19T04:38:36.299Z,4396
2017-04-19T04:39:36.287Z,4572
2017-04-19T04:40:36.577Z,4804
2017-04-19T04:41:36.570Z,5180
2017-04-19T04:42:36.557Z,5440
2017-04-19T04:43:36.538Z,5688
2017-04-19T04:44:36.532Z,5720
2017-04-19T04:45:36.518Z,5980
2017-04-19T04:46:35.903Z,6344
2017-04-19T04:47:36.491Z,6504
2017-04-19T04:48:36.477Z,6628
2017-04-19T04:49:36.467Z,6640
2017-04-19T04:50:36.456Z,6792
2017-04-19T04:51:36.448Z,7300
2017-04-19T04:52:36.429Z,7508
2017-04-19T04:53:36.418Z,7788
2017-04-19T04:54:36.408Z,8020
2017-04-19T04:55:36.398Z,8220
2017-04-19T04:56:36.086Z,8364
2017-04-19T04:57:36.375Z,8548
2017-04-19T04:58:36.362Z,8940
2017-04-19T04:59:36.354Z,8720
2017-04-19T05:00:36.042Z,9476
2017-04-19T05:01:36.335Z,10040
2017-04-19T05:02:36.323Z,9768
2017-04-19T05:03:36.314Z,9768
2017-04-19T05:04:36.307Z,9444
2017-04-19T05:05:36.292Z,9556
2017-04-19T05:06:35.990Z,10012
2017-04-19T05:07:36.272Z,10420
2017-04-19T05:08:36.267Z,10996
2017-04-19T05:09:36.334Z,10932
2017-04-19T05:10:36.245Z,10704
2017-04-19T05:11:35.933Z,10952
2017-04-19T05:12:36.225Z,11384
2017-04-19T05:13:36.220Z,11468
2017-04-19T05:14:36.210Z,12276
2017-04-19T05:15:36.204Z,12896
2017-04-19T05:16:36.190Z,12856
2017-04-19T05:17:36.183Z,13160
2017-04-19T05:18:35.873Z,13760
2017-04-19T05:19:36.170Z,14112
2017-04-19T05:20:36.160Z,14432
2017-04-19T05:21:36.152Z,14976
2017-04-19T05:22:36.146Z,15616
2017-04-19T05:23:36.142Z,15360
2017-04-19T05:24:36.128Z,14944
2017-04-19T05:25:36.124Z,16096
2017-04-19T05:26:36.115Z,16736
2017-04-19T05:27:36.107Z,16832
2017-04-19T05:28:35.833Z,17728
2017-04-19T05:29:36.097Z,18400
2017-04-19T05:30:36.090Z,18688
2017-04-19T05:31:36.080Z,18144
2017-04-19T05:32:36.075Z,17280
2017-04-19T05:33:36.067Z,17792
2017-04-19T05:34:36.060Z,19360
2017-04-19T05:35:36.054Z,19808
2017-04-19T05:36:35.748Z,19680
2017-04-19T05:37:36.227Z,19168
2017-04-19T05:38:36.038Z,18208
2017-04-19T05:39:35.731Z,17600
2017-04-19T05:40:36.024Z,17952
2017-04-19T05:41:36.019Z,18144
2017-04-19T05:42:36.012Z,17472
2017-04-19T05:43:35.713Z,16832
2017-04-19T05:44:36.040Z,16992
2017-04-19T05:45:35.996Z,17408
2017-04-19T05:46:36.185Z,17632
2017-04-19T05:47:35.987Z,17568
2017-04-19T05:48:35.991Z,17472
2017-04-19T05:49:35.976Z,18208
2017-04-19T05:50:35.977Z,19360
2017-04-19T05:51:35.969Z,20416
2017-04-19T05:52:35.963Z,21568
2017-04-19T05:53:35.957Z,22048
2017-04-19T05:54:35.955Z,22496
2017-04-19T05:55:35.937Z,23456
2017-04-19T05:56:35.944Z,24896
2017-04-19T05:57:35.939Z,25728
2017-04-19T05:58:35.939Z,25504
2017-04-19T05:59:35.935Z,25440
2017-04-19T06:00:35.930Z,26016
2017-04-19T06:01:35.922Z,26912
2017-04-19T06:02:35.919Z,27712
2017-04-19T06:03:35.919Z,27328
2017-04-19T06:04:35.914Z,25696
2017-04-19T06:05:35.910Z,23840
2017-04-19T06:06:35.605Z,22784
2017-04-19T06:07:35.601Z,23264
2017-04-19T06:08:35.898Z,25024
2017-04-19T06:09:35.591Z,25792
2017-04-19T06:10:35.895Z,24480
2017-04-19T06:11:35.896Z,22656
2017-04-19T06:12:35.887Z,21664
2017-04-19T06:13:36.006Z,20704
2017-04-19T06:14:35.882Z,20352
2017-04-19T06:15:35.877Z,20800
2017-04-19T06:16:35.878Z,21408
2017-04-19T06:17:35.569Z,22016
2017-04-19T06:18:35.882Z,22976
2017-04-19T06:19:35.866Z,23968
2017-04-19T06:20:35.870Z,24736
2017-04-19T06:21:35.868Z,24640
2017-04-19T06:22:35.950Z,23200
2017-04-19T06:23:35.858Z,20416
2017-04-19T06:24:35.863Z,18016
2017-04-19T06:25:35.857Z,22048
2017-04-19T06:26:35.864Z,32320
2017-04-19T06:27:35.865Z,43392
2017-04-19T06:28:35.855Z,48480
2017-04-19T06:29:35.858Z,44192
2017-04-19T06:30:35.551Z,40000
2017-04-19T06:31:35.835Z,39296
2017-04-19T06:32:35.547Z,44736
2017-04-19T06:33:35.858Z,52608
2017-04-19T06:34:35.849Z,58528
2017-04-19T06:35:35.845Z,63264
2017-04-19T06:36:35.844Z,63328
2017-04-19T06:37:35.843Z,62784
2017-04-19T06:38:35.842Z,63200
2017-04-19T06:39:35.546Z,65792
2017-04-19T06:40:35.850Z,75488
2017-04-19T06:41:35.849Z,85024
2017-04-19T06:42:35.839Z,86688
2017-04-19T06:43:35.842Z,81600
2017-04-19T06:44:35.841Z,75520
2017-04-19T06:45:35.844Z,65216
2017-04-19T06:46:35.840Z,55200
2017-04-19T06:47:35.839Z,49856
2017-04-19T06:48:35.843Z,47712
2017-04-19T06:49:35.873Z,48160
2017-04-19T06:50:35.838Z,49312
2017-04-19T06:51:35.838Z,52960
2017-04-19T06:52:35.841Z,59648
2017-04-19T06:53:35.836Z,62432
2017-04-19T06:54:35.839Z,59904
2017-04-19T06:55:35.839Z,58336
2017-04-19T06:56:35.537Z,54848
2017-04-19T06:57:35.839Z,50400
2017-04-19T06:58:35.979Z,48448
2017-04-19T06:59:35.841Z,44928
2017-04-19T07:00:35.870Z,39776
2017-04-19T07:01:35.846Z,35392
2017-04-19T07:02:35.842Z,33152
2017-04-19T07:03:35.843Z,33152
2017-04-19T07:04:35.843Z,33184
2017-04-19T07:05:35.840Z,32544
2017-04-19T07:06:35.839Z,33664
2017-04-19T07:07:36.497Z,36416
2017-04-19T07:08:35.842Z,23424
2017-04-19T07:09:35.235Z,10816
2017-04-19T07:10:35.539Z,43808
2017-04-19T07:11:35.544Z,45600
2017-04-19T07:12:35.851Z,45056
2017-04-19T07:13:35.843Z,45568
2017-04-19T07:14:35.850Z,48960
2017-04-19T07:15:35.844Z,51008
2017-04-19T07:16:35.845Z,50080
2017-04-19T07:17:35.541Z,50656
2017-04-19T07:18:35.540Z,50464
2017-04-19T07:19:35.852Z,50048
2017-04-19T07:20:35.848Z,47456
2017-04-19T07:21:36.148Z,46496
2017-04-19T07:22:35.850Z,48448
2017-04-19T07:23:35.851Z,52544
2017-04-19T07:24:35.848Z,56096
2017-04-19T07:25:35.846Z,58656
2017-04-19T07:26:35.849Z,20288
2017-04-19T07:27:35.846Z,62112
2017-04-19T07:28:35.849Z,64928
2017-04-19T07:29:35.847Z,66848
2017-04-19T07:30:35.551Z,9576
2017-04-19T07:31:35.546Z,9960
2017-04-19T07:32:35.245Z,13676
2017-04-19T07:33:35.850Z,16420
2017-04-19T07:34:35.852Z,53824
2017-04-19T07:35:35.858Z,42144
2017-04-19T07:36:35.857Z,67296
2017-04-19T07:37:35.852Z,32160
2017-04-19T07:38:35.849Z,56672
2017-04-19T07:39:35.852Z,21504
2017-04-19T07:40:35.850Z,94688
2017-04-19T07:41:35.851Z,11616
2017-04-19T07:42:35.853Z,10336
2017-04-19T07:43:35.848Z,11896
2017-04-19T07:44:35.870Z,12720
2017-04-19T07:45:35.868Z,38656
2017-04-19T07:46:35.846Z,17152
2017-04-19T07:47:35.843Z,20832
2017-04-19T07:48:35.838Z,24384
2017-04-19T07:49:35.839Z,22912
2017-04-19T07:50:35.833Z,71968
2017-04-19T07:51:35.833Z,24064
2017-04-19T07:52:35.827Z,62720
2017-04-19T07:53:35.825Z,61472
2017-04-19T07:54:35.827Z,10992
2017-04-19T07:55:35.824Z,10048
2017-04-19T07:56:35.821Z,9740
2017-04-19T07:57:35.814Z,11616
2017-04-19T07:58:35.810Z,11212
2017-04-19T07:59:35.805Z,12164
2017-04-19T08:00:35.808Z,17632
2017-04-19T08:01:35.806Z,20000
2017-04-19T08:02:35.492Z,21696
2017-04-19T08:03:35.790Z,22528
2017-04-19T08:04:35.475Z,54688
2017-04-19T08:05:35.470Z,75392
2017-04-19T08:06:35.472Z,12580
2017-04-19T08:07:35.490Z,10924
2017-04-19T08:08:35.450Z,9724
2017-04-19T08:09:35.751Z,9640
2017-04-19T08:10:35.743Z,11308
2017-04-19T08:11:35.740Z,13644
2017-04-19T08:12:35.770Z,11772
2017-04-19T08:13:35.425Z,10460
2017-04-19T08:14:35.421Z,10388
2017-04-19T08:15:35.107Z,10388
2017-04-19T08:16:35.710Z,11080
2017-04-19T08:17:36.721Z,11684
2017-04-19T08:18:36.912Z,12820
2017-04-19T08:19:35.689Z,13788
2017-04-19T08:20:35.692Z,16672
2017-04-19T08:21:35.672Z,15556
2017-04-19T08:22:35.360Z,52544
2017-04-19T08:23:35.654Z,11912
2017-04-19T08:25:35.341Z,9624
2017-04-19T08:26:35.330Z,8768
2017-04-19T08:27:35.639Z,8068
2017-04-19T08:28:35.616Z,8172
2017-04-19T08:29:35.957Z,9288
2017-04-19T08:30:35.300Z,11776
2017-04-19T08:31:35.669Z,13044
2017-04-19T08:32:35.284Z,12584
2017-04-19T08:33:35.272Z,12448
2017-04-19T08:34:35.567Z,13820
2017-04-19T08:35:35.567Z,15864
2017-04-19T08:36:35.713Z,13580
2017-04-19T08:37:35.241Z,10844
2017-04-19T08:38:35.233Z,9072
2017-04-19T08:39:35.222Z,9300
2017-04-19T08:40:35.515Z,9768
2017-04-19T08:41:35.504Z,10884
2017-04-19T08:42:35.196Z,13308
2017-04-19T08:43:35.487Z,13400
2017-04-19T08:44:35.178Z,15764
2017-04-19T08:45:35.472Z,17920
2017-04-19T08:46:35.472Z,18816
2017-04-19T08:47:35.452Z,19360
2017-04-19T08:48:35.443Z,23040
2017-04-19T08:49:36.649Z,23328
2017-04-19T08:50:36.692Z,22368
2017-04-19T08:51:37.313Z,21568
2017-04-19T08:52:35.410Z,21184
2017-04-19T08:53:35.440Z,19584
2017-04-19T08:54:35.391Z,13688
2017-04-19T08:55:35.080Z,12580
2017-04-19T08:56:35.375Z,13220
2017-04-19T08:57:35.365Z,15968
2017-04-19T08:58:35.056Z,19872
2017-04-19T08:59:35.352Z,20864
2017-04-19T09:00:35.222Z,19168
2017-04-19T09:01:35.335Z,16224
2017-04-19T09:02:35.326Z,12800
2017-04-19T09:03:35.320Z,12364
2017-04-19T09:04:35.311Z,11920
2017-04-19T09:05:35.300Z,11536
2017-04-19T09:06:34.991Z,11700
2017-04-19T09:07:35.286Z,11692
2017-04-19T09:08:34.975Z,10624
2017-04-19T09:09:34.481Z,9904
2017-04-19T09:10:34.354Z,9412
2017-04-19T09:11:35.255Z,9208
2017-04-19T09:12:35.243Z,9464
2017-04-19T09:13:35.241Z,9780
2017-04-19T09:14:34.923Z,10432
2017-04-19T09:15:35.223Z,11356
2017-04-19T09:16:34.916Z,12796
2017-04-19T09:17:34.897Z,13916
2017-04-19T09:18:35.197Z,14412
2017-04-19T09:19:34.956Z,13928
2017-04-19T09:20:35.181Z,13320
2017-04-19T09:21:34.868Z,13444
2017-04-19T09:22:34.556Z,13488
2017-04-19T09:23:35.151Z,13624
2017-04-19T09:24:34.543Z,13772
2017-04-19T09:25:35.133Z,12980
2017-04-19T09:26:34.823Z,14220
2017-04-19T09:27:34.815Z,16144
2017-04-19T09:28:35.205Z,18912
2017-04-19T09:29:34.807Z,21056
2017-04-19T09:30:34.489Z,21280
2017-04-19T09:31:34.784Z,19488
2017-04-19T09:32:35.074Z,20096
2017-04-19T09:33:35.371Z,20704
2017-04-19T09:34:34.755Z,19872
2017-04-19T09:35:35.055Z,19808
2017-04-19T09:36:34.752Z,23520
2017-04-19T09:37:34.433Z,25184
2017-04-19T09:38:34.727Z,22944
2017-04-19T09:39:34.719Z,18720
2017-04-19T09:40:35.013Z,16672
2017-04-19T09:41:35.007Z,14324
2017-04-19T09:42:34.998Z,12076
2017-04-19T09:43:34.703Z,10840
2017-04-19T09:44:34.983Z,10844
2017-04-19T09:45:34.677Z,11692
2017-04-19T09:46:34.971Z,13536
2017-04-19T09:47:34.959Z,15276
2017-04-19T09:48:34.651Z,16992
2017-04-19T09:49:34.644Z,17440
2017-04-19T09:50:34.942Z,18784
2017-04-19T09:51:34.935Z,19680
2017-04-19T09:52:34.924Z,18432
2017-04-19T09:53:34.916Z,15988
2017-04-19T09:54:34.606Z,14584
2017-04-19T09:55:34.291Z,14000
2017-04-19T09:56:34.590Z,13648
2017-04-19T09:57:34.580Z,13300
2017-04-19T09:58:34.877Z,11900
2017-04-19T09:59:34.871Z,10620
2017-04-19T10:00:34.864Z,9960
2017-04-19T10:01:34.850Z,9936
2017-04-19T10:02:34.845Z,11292
2017-04-19T10:03:34.838Z,14340
2017-04-19T10:04:34.525Z,17920
2017-04-19T10:05:34.519Z,18912
2017-04-19T10:06:34.853Z,18080
2017-04-19T10:07:34.505Z,19104
2017-04-19T10:08:34.491Z,21920
2017-04-19T10:09:34.481Z,24576
2017-04-19T10:10:34.476Z,22720
2017-04-19T10:11:34.478Z,17696
2017-04-19T10:12:34.474Z,13876
2017-04-19T10:13:34.761Z,11272
2017-04-19T10:14:34.445Z,9184
2017-04-19T10:15:34.498Z,8440
2017-04-19T10:16:34.749Z,8764
2017-04-19T10:17:34.727Z,9308
2017-04-19T10:18:34.115Z,9480
2017-04-19T10:19:34.713Z,9532
2017-04-19T10:20:34.712Z,11444
2017-04-19T10:21:34.698Z,13516
2017-04-19T10:22:34.693Z,15984
2017-04-19T10:23:34.073Z,17280
2017-04-19T10:24:34.779Z,18176
2017-04-19T10:25:34.666Z,17920
2017-04-19T10:26:34.657Z,17376
2017-04-19T10:27:34.649Z,16100
2017-04-19T10:28:34.645Z,16184
2017-04-19T10:29:34.632Z,17728
2017-04-19T10:30:34.632Z,18080
2017-04-19T10:31:34.613Z,15924
2017-04-19T10:32:34.613Z,14312
2017-04-19T10:33:34.620Z,15240
2017-04-19T10:34:34.616Z,17088
2017-04-19T10:35:34.586Z,17248
2017-04-19T10:36:34.581Z,19680
2017-04-19T10:37:34.565Z,17824
2017-04-19T10:38:34.574Z,12380
2017-04-19T10:39:34.249Z,9372
2017-04-19T10:40:34.548Z,8744
2017-04-19T10:41:34.839Z,9120
2017-04-19T10:42:34.224Z,9256
2017-04-19T10:43:34.521Z,10632
2017-04-19T10:44:34.510Z,10988
2017-04-19T10:45:34.506Z,10184
2017-04-19T10:46:34.442Z,9680
2017-04-19T10:47:34.490Z,10608
2017-04-19T10:48:34.176Z,11920
2017-04-19T10:49:34.474Z,13624
2017-04-19T10:50:34.169Z,16284
2017-04-19T10:51:34.712Z,20736
2017-04-19T10:52:34.145Z,23200
2017-04-19T10:53:34.273Z,23008
2017-04-19T10:54:34.131Z,21728
2017-04-19T10:55:34.437Z,20832
2017-04-19T10:56:34.672Z,16864
2017-04-19T10:57:34.415Z,13668
2017-04-19T10:58:34.409Z,11620
2017-04-19T10:59:34.395Z,10360
2017-04-19T11:00:34.389Z,9844
2017-04-19T11:01:34.075Z,10452
2017-04-19T11:02:34.070Z,11812
2017-04-19T11:03:34.067Z,13308
2017-04-19T11:04:34.054Z,14268
2017-04-19T11:05:34.355Z,14312
2017-04-19T11:06:34.340Z,13828
2017-04-19T11:07:34.342Z,14052
2017-04-19T11:08:34.327Z,14252
2017-04-19T11:09:34.016Z,13456
2017-04-19T11:10:34.312Z,13516
2017-04-19T11:11:34.306Z,14516
2017-04-19T11:12:34.297Z,16896
2017-04-19T11:13:33.985Z,19328
2017-04-19T11:14:33.975Z,21312
2017-04-19T11:15:34.271Z,22496
2017-04-19T11:16:34.265Z,24192
2017-04-19T11:17:34.257Z,24928
2017-04-19T11:18:33.648Z,25312
2017-04-19T11:19:34.240Z,24160
2017-04-19T11:20:34.244Z,21408
2017-04-19T11:21:33.926Z,17952
2017-04-19T11:22:34.222Z,15736
2017-04-19T11:23:34.214Z,14908
2017-04-19T11:24:34.225Z,14712
2017-04-19T11:25:33.892Z,14048
2017-04-19T11:26:33.885Z,13664
2017-04-19T11:27:34.179Z,13932
2017-04-19T11:28:34.173Z,15096
2017-04-19T11:29:34.168Z,16368
2017-04-19T11:30:33.861Z,17120
2017-04-19T11:31:34.155Z,16736
2017-04-19T11:32:33.844Z,15928
2017-04-19T11:33:34.136Z,15564
2017-04-19T11:34:33.827Z,15364
2017-04-19T11:35:33.831Z,15480
2017-04-19T11:36:33.813Z,16168
2017-04-19T11:37:33.827Z,17952
2017-04-19T11:38:33.800Z,19680
2017-04-19T11:39:33.790Z,21376
2017-04-19T11:40:33.780Z,22336
2017-04-19T11:41:33.775Z,21408
2017-04-19T11:42:33.770Z,19776
2017-04-19T11:43:33.771Z,17312
2017-04-19T11:44:33.753Z,15504
2017-04-19T11:45:33.756Z,13404
2017-04-19T11:46:33.740Z,12116
2017-04-19T11:47:33.731Z,12464
2017-04-19T11:48:33.727Z,12924
2017-04-19T11:49:33.722Z,14980
2017-04-19T11:50:33.406Z,17792
2017-04-19T11:51:33.704Z,18656
2017-04-19T11:52:34.250Z,18656
2017-04-19T11:53:33.991Z,18048
2017-04-19T11:54:33.684Z,17440
2017-04-19T11:55:33.678Z,16020
2017-04-19T11:56:33.993Z,14644
2017-04-19T11:57:33.914Z,13128
2017-04-19T11:58:33.959Z,11608
2017-04-19T11:59:33.951Z,9996
2017-04-19T12:00:33.948Z,8692
2017-04-19T12:01:33.936Z,8128
2017-04-19T12:02:34.177Z,7984
2017-04-19T12:03:33.919Z,7512
2017-04-19T12:04:33.916Z,7508
2017-04-19T12:05:33.598Z,7568
2017-04-19T12:06:33.592Z,7748
2017-04-19T12:07:33.884Z,7920
2017-04-19T12:08:33.882Z,8196
2017-04-19T12:09:33.569Z,8688
2017-04-19T12:10:33.865Z,8872
2017-04-19T12:11:33.869Z,9124
2017-04-19T12:12:34.102Z,9520
2017-04-19T12:13:33.775Z,9820
2017-04-19T12:14:33.527Z,10132
2017-04-19T12:15:33.525Z,10328
2017-04-19T12:16:33.206Z,10876
2017-04-19T12:17:34.149Z,12284
2017-04-19T12:18:34.605Z,13080
2017-04-19T12:19:33.788Z,12596
2017-04-19T12:20:33.476Z,11004
2017-04-19T12:21:33.469Z,9516
2017-04-19T12:22:34.065Z,9320
2017-04-19T12:23:33.756Z,11280
2017-04-19T12:24:33.745Z,11168
2017-04-19T12:25:33.735Z,9780
2017-04-19T12:26:33.428Z,9216
2017-04-19T12:27:34.018Z,8740
2017-04-19T12:28:33.711Z,7788
2017-04-19T12:29:33.398Z,7324
2017-04-19T12:30:33.699Z,7104
2017-04-19T12:31:33.699Z,7072
2017-04-19T12:32:33.940Z,7232
2017-04-19T12:33:33.682Z,7048
2017-04-19T12:34:33.679Z,7272
2017-04-19T12:35:33.647Z,7060
2017-04-19T12:36:33.642Z,7080
2017-04-19T12:37:33.681Z,7212
2017-04-19T12:38:33.623Z,7412
2017-04-19T12:39:33.309Z,7632
2017-04-19T12:40:33.609Z,8048
2017-04-19T12:41:33.293Z,8776
2017-04-19T12:42:33.837Z,9872
2017-04-19T12:43:33.275Z,11488
2017-04-19T12:44:33.270Z,14248
2017-04-19T12:45:33.574Z,16096
2017-04-19T12:46:33.558Z,18144
2017-04-19T12:47:33.793Z,18912
2017-04-19T12:48:33.736Z,17792
2017-04-19T12:49:33.533Z,14644
2017-04-19T12:50:33.522Z,10760
2017-04-19T12:51:33.511Z,7784
2017-04-19T12:52:33.753Z,5692
2017-04-19T12:53:33.188Z,5224
2017-04-19T12:54:33.719Z,5596
2017-04-19T12:55:33.476Z,6368
2017-04-19T12:56:33.170Z,7620
2017-04-19T12:57:33.767Z,9328
2017-04-19T12:58:33.147Z,10560
2017-04-19T12:59:33.141Z,11376
2017-04-19T13:00:33.130Z,11824
2017-04-19T13:01:33.124Z,12940
2017-04-19T13:02:33.363Z,14316
2017-04-19T13:03:33.109Z,14812
2017-04-19T13:04:33.400Z,15188
2017-04-19T13:05:33.087Z,15764
2017-04-19T13:06:33.385Z,16256
2017-04-19T13:07:33.726Z,15876
2017-04-19T13:08:33.066Z,15492
2017-04-19T13:09:33.356Z,14884
2017-04-19T13:10:33.350Z,14336
2017-04-19T13:11:33.032Z,13716
2017-04-19T13:12:33.444Z,13048
2017-04-19T13:13:33.521Z,12360
2017-04-19T13:14:33.008Z,11812
2017-04-19T13:15:33.304Z,11412
2017-04-19T13:16:33.303Z,11156
2017-04-19T13:17:33.242Z,11108
2017-04-19T13:18:33.284Z,11432
2017-04-19T13:19:32.966Z,12036
2017-04-19T13:20:33.259Z,12248
2017-04-19T13:21:33.429Z,11440
2017-04-19T13:22:33.240Z,11936
2017-04-19T13:23:32.932Z,12272
2017-04-19T13:24:33.226Z,12240
2017-04-19T13:25:33.217Z,12028
2017-04-19T13:26:33.215Z,11888
2017-04-19T13:27:33.504Z,11884
2017-04-19T13:28:33.195Z,12200
2017-04-19T13:29:32.883Z,12740